sensor_id;sensor_type;location;lat;lon;timestamp;pressure;altitude;pressure_sealevel;temperature;humidity
12897;BME280;6516;35.028;32.372;2023-03-18T00:00:33;99473.63;;;12.90;94.35
12897;BME280;6516;35.028;32.372;2023-03-18T00:03:01;99484.53;;;12.81;94.98
12897;BME280;6516;35.028;32.372;2023-03-18T00:05:30;99482.91;;;12.77;95.74
12897;BME280;6516;35.028;32.372;2023-03-18T00:07:59;99476.84;;;12.75;96.03
12897;BME280;6516;35.028;32.372;2023-03-18T00:10:27;99478.72;;;12.71;96.71
12897;BME280;6516;35.028;32.372;2023-03-18T00:12:55;99478.78;;;12.70;97.23
12897;BME280;6516;35.028;32.372;2023-03-18T00:15:24;99479.44;;;12.76;97.33
12897;BME280;6516;35.028;32.372;2023-03-18T00:17:52;99473.03;;;12.82;96.88
12897;BME280;6516;35.028;32.372;2023-03-18T00:20:20;99481.63;;;12.87;96.61
12897;BME280;6516;35.028;32.372;2023-03-18T00:23:05;99477.19;;;12.89;96.40
12897;BME280;6516;35.028;32.372;2023-03-18T00:25:33;99470.97;;;12.90;96.55
12897;BME280;6516;35.028;32.372;2023-03-18T00:28:02;99472.63;;;12.92;96.68
12897;BME280;6516;35.028;32.372;2023-03-18T00:30:30;99471.72;;;12.93;96.35
12897;BME280;6516;35.028;32.372;2023-03-18T00:32:58;99471.75;;;12.92;96.59
12897;BME280;6516;35.028;32.372;2023-03-18T00:35:26;99468.31;;;12.90;96.79
12897;BME280;6516;35.028;32.372;2023-03-18T00:37:55;99467.41;;;12.91;96.74
12897;BME280;6516;35.028;32.372;2023-03-18T00:40:26;99467.53;;;12.88;96.83
12897;BME280;6516;35.028;32.372;2023-03-18T00:43:07;99469.25;;;12.89;96.94
12897;BME280;6516;35.028;32.372;2023-03-18T00:45:37;99464.72;;;12.92;96.59
12897;BME280;6516;35.028;32.372;2023-03-18T00:48:06;99454.94;;;12.94;96.50
12897;BME280;6516;35.028;32.372;2023-03-18T00:50:34;99449.56;;;12.97;96.36
12897;BME280;6516;35.028;32.372;2023-03-18T00:53:02;99451.38;;;12.97;96.27
12897;BME280;6516;35.028;32.372;2023-03-18T00:55:31;99446.94;;;12.96;96.16
12897;BME280;6516;35.028;32.372;2023-03-18T00:58:00;99442.66;;;12.93;96.07
12897;BME280;6516;35.028;32.372;2023-03-18T01:00:29;99439.31;;;12.88;96.23
12897;BME280;6516;35.028;32.372;2023-03-18T01:02:57;99451.06;;;12.81;96.17
12897;BME280;6516;35.028;32.372;2023-03-18T01:05:25;99453.97;;;12.74;97.04
12897;BME280;6516;35.028;32.372;2023-03-18T01:07:52;99447.31;;;12.64;97.91
12897;BME280;6516;35.028;32.372;2023-03-18T01:10:20;99447.69;;;12.53;97.80
12897;BME280;6516;35.028;32.372;2023-03-18T01:12:49;99447.25;;;12.42;97.89
12897;BME280;6516;35.028;32.372;2023-03-18T01:15:20;99451.88;;;12.36;97.93
12897;BME280;6516;35.028;32.372;2023-03-18T01:17:48;99447.75;;;12.29;97.89
12897;BME280;6516;35.028;32.372;2023-03-18T01:20:18;99448.00;;;12.21;98.35
12897;BME280;6516;35.028;32.372;2023-03-18T01:22:47;99447.34;;;12.15;98.36
12897;BME280;6516;35.028;32.372;2023-03-18T01:25:16;99443.22;;;12.08;99.07
12897;BME280;6516;35.028;32.372;2023-03-18T01:27:45;99435.47;;;12.03;99.18
12897;BME280;6516;35.028;32.372;2023-03-18T01:30:15;99437.44;;;11.97;99.06
12897;BME280;6516;35.028;32.372;2023-03-18T01:32:42;99441.00;;;11.96;99.48
12897;BME280;6516;35.028;32.372;2023-03-18T01:35:11;99441.22;;;11.90;99.27
12897;BME280;6516;35.028;32.372;2023-03-18T01:37:39;99437.91;;;11.85;99.58
12897;BME280;6516;35.028;32.372;2023-03-18T01:40:10;99441.59;;;11.79;99.66
12897;BME280;6516;35.028;32.372;2023-03-18T01:42:39;99447.78;;;11.78;99.94
12897;BME280;6516;35.028;32.372;2023-03-18T01:45:15;99451.28;;;11.79;100.00
12897;BME280;6516;35.028;32.372;2023-03-18T01:47:45;99445.19;;;11.77;100.00
12897;BME280;6516;35.028;32.372;2023-03-18T01:50:16;99445.28;;;11.74;100.00
12897;BME280;6516;35.028;32.372;2023-03-18T01:52:47;99445.28;;;11.74;100.00
12897;BME280;6516;35.028;32.372;2023-03-18T01:55:21;99442.72;;;11.72;100.00
12897;BME280;6516;35.028;32.372;2023-03-18T01:57:50;99440.97;;;11.71;100.00
12897;BME280;6516;35.028;32.372;2023-03-18T02:00:20;99446.25;;;11.71;100.00
12897;BME280;6516;35.028;32.372;2023-03-18T02:02:49;99445.50;;;11.68;100.00
12897;BME280;6516;35.028;32.372;2023-03-18T02:05:25;99441.28;;;11.62;100.00
12897;BME280;6516;35.028;32.372;2023-03-18T02:07:54;99444.91;;;11.60;100.00
12897;BME280;6516;35.028;32.372;2023-03-18T02:10:24;99449.34;;;11.58;100.00
12897;BME280;6516;35.028;32.372;2023-03-18T02:12:59;99439.84;;;11.52;100.00
12897;BME280;6516;35.028;32.372;2023-03-18T02:15:33;99446.13;;;11.48;100.00
12897;BME280;6516;35.028;32.372;2023-03-18T02:18:07;99455.00;;;11.46;100.00
12897;BME280;6516;35.028;32.372;2023-03-18T02:20:50;99455.13;;;11.43;100.00
12897;BME280;6516;35.028;32.372;2023-03-18T02:23:31;99454.31;;;11.39;100.00
12897;BME280;6516;35.028;32.372;2023-03-18T02:26:08;99457.00;;;11.38;100.00
12897;BME280;6516;35.028;32.372;2023-03-18T02:28:42;99453.56;;;11.36;100.00
12897;BME280;6516;35.028;32.372;2023-03-18T02:31:12;99458.88;;;11.34;100.00
12897;BME280;6516;35.028;32.372;2023-03-18T02:33:43;99461.53;;;11.34;100.00
12897;BME280;6516;35.028;32.372;2023-03-18T02:36:16;99464.91;;;11.38;100.00
12897;BME280;6516;35.028;32.372;2023-03-18T02:38:46;99460.56;;;11.37;100.00
12897;BME280;6516;35.028;32.372;2023-03-18T02:41:16;99459.75;;;11.35;100.00
12897;BME280;6516;35.028;32.372;2023-03-18T02:43:46;99455.34;;;11.35;100.00
12897;BME280;6516;35.028;32.372;2023-03-18T02:46:27;99457.97;;;11.35;100.00
12897;BME280;6516;35.028;32.372;2023-03-18T02:49:00;99457.13;;;11.35;100.00
12897;BME280;6516;35.028;32.372;2023-03-18T02:51:29;99454.44;;;11.36;100.00
12897;BME280;6516;35.028;32.372;2023-03-18T02:54:00;99458.69;;;11.40;100.00
12897;BME280;6516;35.028;32.372;2023-03-18T02:56:30;99451.66;;;11.41;100.00
12897;BME280;6516;35.028;32.372;2023-03-18T02:58:59;99451.53;;;11.45;100.00
12897;BME280;6516;35.028;32.372;2023-03-18T03:01:27;99453.28;;;11.45;100.00
12897;BME280;6516;35.028;32.372;2023-03-18T03:03:55;99451.25;;;11.53;100.00
12897;BME280;6516;35.028;32.372;2023-03-18T03:06:23;99442.34;;;11.57;99.79
12897;BME280;6516;35.028;32.372;2023-03-18T03:08:51;99439.63;;;11.58;99.80
12897;BME280;6516;35.028;32.372;2023-03-18T03:11:19;99443.16;;;11.59;99.60
12897;BME280;6516;35.028;32.372;2023-03-18T03:13:48;99452.81;;;11.60;99.56
12897;BME280;6516;35.028;32.372;2023-03-18T03:16:17;99444.16;;;11.55;99.10
12897;BME280;6516;35.028;32.372;2023-03-18T03:18:45;99446.84;;;11.53;98.76
12897;BME280;6516;35.028;32.372;2023-03-18T03:21:14;99442.66;;;11.48;98.38
12897;BME280;6516;35.028;32.372;2023-03-18T03:23:42;99446.13;;;11.48;98.64
12897;BME280;6516;35.028;32.372;2023-03-18T03:26:11;99441.81;;;11.46;98.42
12897;BME280;6516;35.028;32.372;2023-03-18T03:28:39;99447.13;;;11.44;98.23
12897;BME280;6516;35.028;32.372;2023-03-18T03:31:07;99445.41;;;11.43;98.15
12897;BME280;6516;35.028;32.372;2023-03-18T03:33:39;99445.47;;;11.42;98.26
12897;BME280;6516;35.028;32.372;2023-03-18T03:36:10;99443.75;;;11.41;98.62
12897;BME280;6516;35.028;32.372;2023-03-18T03:38:39;99448.97;;;11.42;98.70
12897;BME280;6516;35.028;32.372;2023-03-18T03:41:08;99445.50;;;11.40;98.60
12897;BME280;6516;35.028;32.372;2023-03-18T03:43:36;99448.09;;;11.42;98.90
12897;BME280;6516;35.028;32.372;2023-03-18T03:46:05;99441.97;;;11.41;99.22
12897;BME280;6516;35.028;32.372;2023-03-18T03:48:34;99451.44;;;11.47;99.35
12897;BME280;6516;35.028;32.372;2023-03-18T03:51:05;99456.72;;;11.47;99.50
12897;BME280;6516;35.028;32.372;2023-03-18T03:53:34;99455.81;;;11.48;98.96
12897;BME280;6516;35.028;32.372;2023-03-18T03:56:02;99455.69;;;11.51;98.91
12897;BME280;6516;35.028;32.372;2023-03-18T03:58:32;99460.13;;;11.50;98.67
12897;BME280;6516;35.028;32.372;2023-03-18T04:01:00;99457.63;;;11.46;98.67
12897;BME280;6516;35.028;32.372;2023-03-18T04:03:29;99453.41;;;11.40;98.57
12897;BME280;6516;35.028;32.372;2023-03-18T04:05:57;99452.66;;;11.37;99.00
12897;BME280;6516;35.028;32.372;2023-03-18T04:08:26;99457.00;;;11.38;99.30
12897;BME280;6516;35.028;32.372;2023-03-18T04:10:54;99462.84;;;11.47;99.43
12897;BME280;6516;35.028;32.372;2023-03-18T04:13:22;99458.34;;;11.51;98.87
12897;BME280;6516;35.028;32.372;2023-03-18T04:15:50;99456.63;;;11.50;98.44
12897;BME280;6516;35.028;32.372;2023-03-18T04:18:18;99460.19;;;11.49;98.67
12897;BME280;6516;35.028;32.372;2023-03-18T04:20:46;99457.53;;;11.49;98.51
12897;BME280;6516;35.028;32.372;2023-03-18T04:23:14;99454.91;;;11.49;97.97
12897;BME280;6516;35.028;32.372;2023-03-18T04:25:43;99461.09;;;11.48;97.82
12897;BME280;6516;35.028;32.372;2023-03-18T04:28:10;99456.72;;;11.47;97.77
12897;BME280;6516;35.028;32.372;2023-03-18T04:30:39;99454.06;;;11.47;98.26
12897;BME280;6516;35.028;32.372;2023-03-18T04:33:07;99452.31;;;11.47;97.94
12897;BME280;6516;35.028;32.372;2023-03-18T04:35:35;99452.34;;;11.46;97.93
12897;BME280;6516;35.028;32.372;2023-03-18T04:38:02;99455.75;;;11.49;98.00
12897;BME280;6516;35.028;32.372;2023-03-18T04:40:31;99452.31;;;11.47;98.07
12897;BME280;6516;35.028;32.372;2023-03-18T04:43:00;99456.72;;;11.47;98.28
12897;BME280;6516;35.028;32.372;2023-03-18T04:45:28;99449.84;;;11.43;98.37
12897;BME280;6516;35.028;32.372;2023-03-18T04:47:56;99456.91;;;11.41;98.76
12897;BME280;6516;35.028;32.372;2023-03-18T04:50:24;99462.94;;;11.44;99.23
12897;BME280;6516;35.028;32.372;2023-03-18T04:52:52;99463.63;;;11.51;99.37
12897;BME280;6516;35.028;32.372;2023-03-18T04:55:20;99468.44;;;11.66;99.57
12897;BME280;6516;35.028;32.372;2023-03-18T04:57:48;99467.97;;;11.79;99.41
12897;BME280;6516;35.028;32.372;2023-03-18T05:00:19;99472.78;;;11.93;99.59
12897;BME280;6516;35.028;32.372;2023-03-18T05:02:47;99472.34;;;12.05;99.38
12897;BME280;6516;35.028;32.372;2023-03-18T05:05:15;99474.41;;;12.21;99.27
12897;BME280;6516;35.028;32.372;2023-03-18T05:07:43;99474.53;;;12.43;98.49
12897;BME280;6516;35.028;32.372;2023-03-18T05:10:11;99474.59;;;12.64;98.16
12897;BME280;6516;35.028;32.372;2023-03-18T05:12:39;99468.28;;;12.91;97.86
12897;BME280;6516;35.028;32.372;2023-03-18T05:15:08;99461.28;;;13.13;96.44
12897;BME280;6516;35.028;32.372;2023-03-18T05:17:37;99461.66;;;13.26;94.50
12897;BME280;6516;35.028;32.372;2023-03-18T05:20:07;99466.31;;;13.41;93.98
12897;BME280;6516;35.028;32.372;2023-03-18T05:22:36;99463.09;;;13.56;92.23
12897;BME280;6516;35.028;32.372;2023-03-18T05:25:05;99461.72;;;13.67;90.85
12897;BME280;6516;35.028;32.372;2023-03-18T05:27:33;99461.19;;;13.79;90.11
12897;BME280;6516;35.028;32.372;2023-03-18T05:30:01;99460.63;;;13.93;89.69
12897;BME280;6516;35.028;32.372;2023-03-18T05:32:29;99460.50;;;14.16;89.73
12897;BME280;6516;35.028;32.372;2023-03-18T05:34:59;99453.44;;;14.36;88.75
12897;BME280;6516;35.028;32.372;2023-03-18T05:37:26;99464.16;;;14.53;87.85
12897;BME280;6516;35.028;32.372;2023-03-18T05:39:54;99471.19;;;14.73;87.03
12897;BME280;6516;35.028;32.372;2023-03-18T05:42:22;99463.72;;;15.01;86.97
12897;BME280;6516;35.028;32.372;2023-03-18T05:44:50;99456.53;;;15.21;85.43
12897;BME280;6516;35.028;32.372;2023-03-18T05:47:19;99457.81;;;15.50;83.42
12897;BME280;6516;35.028;32.372;2023-03-18T05:49:47;99463.19;;;15.84;83.04
12897;BME280;6516;35.028;32.372;2023-03-18T05:52:16;99470.06;;;16.22;83.18
12897;BME280;6516;35.028;32.372;2023-03-18T05:54:44;99462.50;;;16.48;77.62
12897;BME280;6516;35.028;32.372;2023-03-18T05:57:14;99464.38;;;16.79;77.78
12897;BME280;6516;35.028;32.372;2023-03-18T05:59:42;99459.44;;;17.04;74.70
12897;BME280;6516;35.028;32.372;2023-03-18T06:02:10;99457.16;;;17.29;74.61
12897;BME280;6516;35.028;32.372;2023-03-18T06:04:38;99461.53;;;17.61;73.18
12897;BME280;6516;35.028;32.372;2023-03-18T06:07:06;99462.19;;;17.80;72.24
12897;BME280;6516;35.028;32.372;2023-03-18T06:09:35;99466.72;;;17.93;70.76
12897;BME280;6516;35.028;32.372;2023-03-18T06:12:03;99469.66;;;17.89;70.24
12897;BME280;6516;35.028;32.372;2023-03-18T06:14:32;99465.66;;;17.82;69.31
12897;BME280;6516;35.028;32.372;2023-03-18T06:17:00;99460.19;;;17.83;69.51
12897;BME280;6516;35.028;32.372;2023-03-18T06:19:27;99462.78;;;17.85;70.39
12897;BME280;6516;35.028;32.372;2023-03-18T06:21:56;99475.75;;;17.91;70.88
12897;BME280;6516;35.028;32.372;2023-03-18T06:24:24;99466.91;;;17.90;70.11
12897;BME280;6516;35.028;32.372;2023-03-18T06:26:54;99473.56;;;17.97;69.72
12897;BME280;6516;35.028;32.372;2023-03-18T06:29:22;99471.78;;;17.98;70.02
12897;BME280;6516;35.028;32.372;2023-03-18T06:31:50;99467.25;;;18.00;68.71
12897;BME280;6516;35.028;32.372;2023-03-18T06:34:18;99460.66;;;18.05;69.54
12897;BME280;6516;35.028;32.372;2023-03-18T06:36:45;99455.50;;;18.18;67.97
12897;BME280;6516;35.028;32.372;2023-03-18T06:39:13;99463.78;;;18.27;68.00
12897;BME280;6516;35.028;32.372;2023-03-18T06:41:41;99470.72;;;18.30;67.18
12897;BME280;6516;35.028;32.372;2023-03-18T06:44:10;99462.50;;;18.34;66.78
12897;BME280;6516;35.028;32.372;2023-03-18T06:46:39;99470.31;;;18.51;64.94
12897;BME280;6516;35.028;32.372;2023-03-18T06:49:07;99464.34;;;18.62;63.32
12897;BME280;6516;35.028;32.372;2023-03-18T06:51:35;99476.25;;;18.56;63.14
12897;BME280;6516;35.028;32.372;2023-03-18T06:54:04;99480.50;;;18.45;63.37
12897;BME280;6516;35.028;32.372;2023-03-18T06:56:32;99482.34;;;18.29;65.16
12897;BME280;6516;35.028;32.372;2023-03-18T06:59:02;99476.16;;;17.99;65.51
12897;BME280;6516;35.028;32.372;2023-03-18T07:01:31;99478.50;;;17.89;66.56
12897;BME280;6516;35.028;32.372;2023-03-18T07:03:59;99477.41;;;17.78;68.60
12897;BME280;6516;35.028;32.372;2023-03-18T07:06:28;99473.97;;;17.60;69.19
12897;BME280;6516;35.028;32.372;2023-03-18T07:08:56;99479.97;;;17.33;69.50
12897;BME280;6516;35.028;32.372;2023-03-18T07:11:26;99473.91;;;17.46;68.66
12897;BME280;6516;35.028;32.372;2023-03-18T07:13:54;99476.56;;;17.46;69.69
12897;BME280;6516;35.028;32.372;2023-03-18T07:16:22;99477.75;;;17.25;69.84
12897;BME280;6516;35.028;32.372;2023-03-18T07:18:51;99475.31;;;17.05;70.93
12897;BME280;6516;35.028;32.372;2023-03-18T07:21:19;99473.69;;;17.03;70.30
12897;BME280;6516;35.028;32.372;2023-03-18T07:23:47;99464.16;;;16.99;70.74
12897;BME280;6516;35.028;32.372;2023-03-18T07:26:15;99474.25;;;16.92;71.55
12897;BME280;6516;35.028;32.372;2023-03-18T07:28:42;99472.69;;;16.88;71.75
12897;BME280;6516;35.028;32.372;2023-03-18T07:31:10;99472.53;;;16.91;73.00
12897;BME280;6516;35.028;32.372;2023-03-18T07:33:38;99479.50;;;16.94;73.30
12897;BME280;6516;35.028;32.372;2023-03-18T07:36:08;99479.50;;;16.94;73.70
12897;BME280;6516;35.028;32.372;2023-03-18T07:38:36;99477.00;;;16.91;74.03
12897;BME280;6516;35.028;32.372;2023-03-18T07:41:04;99481.63;;;16.87;74.71
12897;BME280;6516;35.028;32.372;2023-03-18T07:43:32;99485.53;;;16.65;77.09
12897;BME280;6516;35.028;32.372;2023-03-18T07:46:01;99487.31;;;16.13;81.39
12897;BME280;6516;35.028;32.372;2023-03-18T07:48:30;99489.72;;;15.84;84.93
12897;BME280;6516;35.028;32.372;2023-03-18T07:50:58;99489.81;;;15.64;87.69
12897;BME280;6516;35.028;32.372;2023-03-18T07:53:28;99500.03;;;15.54;87.41
12897;BME280;6516;35.028;32.372;2023-03-18T07:55:55;99494.03;;;15.51;86.95
12897;BME280;6516;35.028;32.372;2023-03-18T07:58:23;99496.97;;;15.45;88.59
12897;BME280;6516;35.028;32.372;2023-03-18T08:00:51;99501.00;;;15.35;89.24
12897;BME280;6516;35.028;32.372;2023-03-18T08:03:19;99497.97;;;15.24;90.37
12897;BME280;6516;35.028;32.372;2023-03-18T08:05:47;99514.38;;;15.13;92.06
12897;BME280;6516;35.028;32.372;2023-03-18T08:08:15;99509.63;;;15.01;91.40
12897;BME280;6516;35.028;32.372;2023-03-18T08:10:45;99510.38;;;14.85;91.35
12897;BME280;6516;35.028;32.372;2023-03-18T08:13:12;99529.22;;;14.59;89.69
12897;BME280;6516;35.028;32.372;2023-03-18T08:15:40;99527.72;;;14.33;87.15
12897;BME280;6516;35.028;32.372;2023-03-18T08:18:09;99521.09;;;14.23;88.18
12897;BME280;6516;35.028;32.372;2023-03-18T08:20:36;99513.84;;;14.07;88.52
12897;BME280;6516;35.028;32.372;2023-03-18T08:23:04;99514.44;;;13.92;88.62
12897;BME280;6516;35.028;32.372;2023-03-18T08:25:32;99514.03;;;13.81;89.38
12897;BME280;6516;35.028;32.372;2023-03-18T08:28:01;99512.69;;;13.71;90.71
12897;BME280;6516;35.028;32.372;2023-03-18T08:30:32;99510.44;;;13.62;92.17
12897;BME280;6516;35.028;32.372;2023-03-18T08:33:00;99504.84;;;13.48;94.31
12897;BME280;6516;35.028;32.372;2023-03-18T08:35:28;99497.47;;;13.33;97.32
12897;BME280;6516;35.028;32.372;2023-03-18T08:37:56;99503.06;;;13.25;98.36
12897;BME280;6516;35.028;32.372;2023-03-18T08:40:23;99493.44;;;13.24;100.00
12897;BME280;6516;35.028;32.372;2023-03-18T08:42:52;99502.41;;;13.20;100.00
12897;BME280;6516;35.028;32.372;2023-03-18T08:45:21;99492.81;;;13.18;100.00
12897;BME280;6516;35.028;32.372;2023-03-18T08:47:49;99484.63;;;13.24;100.00
12897;BME280;6516;35.028;32.372;2023-03-18T08:50:17;99477.31;;;13.30;100.00
12897;BME280;6516;35.028;32.372;2023-03-18T08:52:45;99474.41;;;13.38;100.00
12897;BME280;6516;35.028;32.372;2023-03-18T08:55:13;99472.22;;;13.47;100.00
12897;BME280;6516;35.028;32.372;2023-03-18T08:57:41;99462.72;;;13.65;100.00
12897;BME280;6516;35.028;32.372;2023-03-18T09:00:10;99467.41;;;13.78;100.00
12897;BME280;6516;35.028;32.372;2023-03-18T09:02:40;99461.41;;;13.95;100.00
12897;BME280;6516;35.028;32.372;2023-03-18T09:05:08;99466.91;;;14.10;100.00
12897;BME280;6516;35.028;32.372;2023-03-18T09:07:36;99466.94;;;14.30;100.00
12897;BME280;6516;35.028;32.372;2023-03-18T09:10:05;99470.56;;;14.48;100.00
12897;BME280;6516;35.028;32.372;2023-03-18T09:12:34;99472.00;;;14.75;100.00
12897;BME280;6516;35.028;32.372;2023-03-18T09:15:02;99471.94;;;14.95;100.00
12897;BME280;6516;35.028;32.372;2023-03-18T09:17:30;99461.09;;;15.18;100.00
12897;BME280;6516;35.028;32.372;2023-03-18T09:20:00;99456.34;;;15.61;100.00
12897;BME280;6516;35.028;32.372;2023-03-18T09:22:28;99461.28;;;15.86;100.00
12897;BME280;6516;35.028;32.372;2023-03-18T09:24:56;99467.25;;;16.08;100.00
12897;BME280;6516;35.028;32.372;2023-03-18T09:27:24;99464.25;;;16.14;100.00
12897;BME280;6516;35.028;32.372;2023-03-18T09:29:52;99456.00;;;16.20;100.00
12897;BME280;6516;35.028;32.372;2023-03-18T09:32:19;99449.59;;;16.07;100.00
12897;BME280;6516;35.028;32.372;2023-03-18T09:34:47;99457.72;;;16.21;100.00
12897;BME280;6516;35.028;32.372;2023-03-18T09:37:18;99449.00;;;16.68;100.00
12897;BME280;6516;35.028;32.372;2023-03-18T09:39:46;99442.63;;;17.03;100.00
12897;BME280;6516;35.028;32.372;2023-03-18T09:42:27;99444.34;;;17.20;100.00
12897;BME280;6516;35.028;32.372;2023-03-18T09:45:11;99438.38;;;17.32;100.00
12897;BME280;6516;35.028;32.372;2023-03-18T09:48:13;99444.19;;;17.23;100.00
12897;BME280;6516;35.028;32.372;2023-03-18T09:51:13;99437.84;;;17.25;99.15
12897;BME280;6516;35.028;32.372;2023-03-18T09:53:52;99440.81;;;17.04;97.99
12897;BME280;6516;35.028;32.372;2023-03-18T09:56:26;99433.34;;;16.95;97.47
12897;BME280;6516;35.028;32.372;2023-03-18T09:58:59;99438.38;;;16.68;98.10
12897;BME280;6516;35.028;32.372;2023-03-18T10:01:31;99439.75;;;16.43;98.19
12897;BME280;6516;35.028;32.372;2023-03-18T10:04:03;99444.44;;;16.55;99.75
12897;BME280;6516;35.028;32.372;2023-03-18T10:06:36;99437.56;;;16.34;98.76
12897;BME280;6516;35.028;32.372;2023-03-18T10:09:13;99445.38;;;16.20;98.33
12897;BME280;6516;35.028;32.372;2023-03-18T10:11:46;99448.97;;;15.85;97.71
12897;BME280;6516;35.028;32.372;2023-03-18T10:14:23;99449.31;;;15.60;98.77
12897;BME280;6516;35.028;32.372;2023-03-18T10:17:15;99445.94;;;15.03;97.43
12897;BME280;6516;35.028;32.372;2023-03-18T10:19:47;99442.56;;;14.42;96.25
12897;BME280;6516;35.028;32.372;2023-03-18T10:22:32;99442.91;;;14.35;99.22
12897;BME280;6516;35.028;32.372;2023-03-18T10:25:22;99449.50;;;13.85;97.86
12897;BME280;6516;35.028;32.372;2023-03-18T10:28:11;99443.81;;;13.94;90.85
12897;BME280;6516;35.028;32.372;2023-03-18T10:30:53;99448.59;;;14.06;85.86
12897;BME280;6516;35.028;32.372;2023-03-18T10:33:35;99440.72;;;14.04;83.78
12897;BME280;6516;35.028;32.372;2023-03-18T10:36:11;99450.69;;;13.98;83.87
12897;BME280;6516;35.028;32.372;2023-03-18T10:38:46;99442.69;;;13.99;84.64
12897;BME280;6516;35.028;32.372;2023-03-18T10:41:20;99443.94;;;13.91;87.23
12897;BME280;6516;35.028;32.372;2023-03-18T10:43:52;99442.34;;;13.87;90.36
12897;BME280;6516;35.028;32.372;2023-03-18T10:46:22;99438.03;;;13.84;89.24
12897;BME280;6516;35.028;32.372;2023-03-18T10:48:53;99437.97;;;13.86;87.88
12897;BME280;6516;35.028;32.372;2023-03-18T10:51:29;99421.13;;;13.88;86.91
12897;BME280;6516;35.028;32.372;2023-03-18T10:54:03;99423.44;;;13.96;87.44
12897;BME280;6516;35.028;32.372;2023-03-18T10:56:37;99409.41;;;14.14;89.30
12897;BME280;6516;35.028;32.372;2023-03-18T10:59:10;99403.19;;;14.35;91.02
12897;BME280;6516;35.028;32.372;2023-03-18T11:01:42;99407.66;;;14.53;92.27
12897;BME280;6516;35.028;32.372;2023-03-18T11:04:16;99408.81;;;14.66;94.56
12897;BME280;6516;35.028;32.372;2023-03-18T11:06:48;99400.44;;;14.75;95.13
12897;BME280;6516;35.028;32.372;2023-03-18T11:09:19;99390.50;;;14.80;95.57
12897;BME280;6516;35.028;32.372;2023-03-18T11:11:55;99398.31;;;14.83;95.39
12897;BME280;6516;35.028;32.372;2023-03-18T11:14:28;99386.84;;;14.82;94.24
12897;BME280;6516;35.028;32.372;2023-03-18T11:16:58;99392.22;;;14.62;88.46
12897;BME280;6516;35.028;32.372;2023-03-18T11:19:29;99398.13;;;14.49;90.05
12897;BME280;6516;35.028;32.372;2023-03-18T11:22:20;99393.00;;;14.26;88.17
12897;BME280;6516;35.028;32.372;2023-03-18T11:25:04;99395.66;;;14.06;89.47
12897;BME280;6516;35.028;32.372;2023-03-18T11:27:42;99391.66;;;13.96;90.54
12897;BME280;6516;35.028;32.372;2023-03-18T11:30:17;99390.56;;;13.81;90.82
12897;BME280;6516;35.028;32.372;2023-03-18T11:32:52;99396.44;;;13.68;93.71
12897;BME280;6516;35.028;32.372;2023-03-18T11:35:24;99398.25;;;13.46;90.37
12897;BME280;6516;35.028;32.372;2023-03-18T11:38:02;99390.09;;;13.30;95.33
12897;BME280;6516;35.028;32.372;2023-03-18T11:40:30;99394.28;;;13.14;97.28
12897;BME280;6516;35.028;32.372;2023-03-18T11:43:02;99400.81;;;13.06;95.25
12897;BME280;6516;35.028;32.372;2023-03-18T11:45:53;99400.50;;;13.13;99.88
12897;BME280;6516;35.028;32.372;2023-03-18T11:48:35;99397.59;;;13.19;100.00
12897;BME280;6516;35.028;32.372;2023-03-18T11:54:14;99397.03;;;13.33;100.00
12897;BME280;6516;35.028;32.372;2023-03-18T11:56:47;99390.78;;;13.35;100.00
12897;BME280;6516;35.028;32.372;2023-03-18T11:59:33;99386.06;;;13.42;100.00
12897;BME280;6516;35.028;32.372;2023-03-18T12:02:28;99387.59;;;13.47;100.00
12897;BME280;6516;35.028;32.372;2023-03-18T12:05:26;99387.44;;;13.52;100.00
12897;BME280;6516;35.028;32.372;2023-03-18T12:08:11;99379.22;;;13.58;100.00
12897;BME280;6516;35.028;32.372;2023-03-18T12:10:45;99378.06;;;13.65;100.00
12897;BME280;6516;35.028;32.372;2023-03-18T12:13:31;99375.09;;;13.72;100.00
12897;BME280;6516;35.028;32.372;2023-03-18T12:16:08;99371.28;;;13.78;100.00
12897;BME280;6516;35.028;32.372;2023-03-18T12:18:53;99362.19;;;13.85;100.00
12897;BME280;6516;35.028;32.372;2023-03-18T12:21:53;99358.25;;;13.93;100.00
12897;BME280;6516;35.028;32.372;2023-03-18T12:25:03;99365.66;;;14.05;100.00
12897;BME280;6516;35.028;32.372;2023-03-18T12:27:44;99362.38;;;14.20;100.00
12897;BME280;6516;35.028;32.372;2023-03-18T12:30:26;99364.81;;;14.25;100.00
12897;BME280;6516;35.028;32.372;2023-03-18T12:33:31;99373.41;;;14.30;99.11
12897;BME280;6516;35.028;32.372;2023-03-18T12:36:16;99375.84;;;14.34;96.66
12897;BME280;6516;35.028;32.372;2023-03-18T12:39:19;99378.81;;;14.47;96.70
12897;BME280;6516;35.028;32.372;2023-03-18T12:42:09;99374.34;;;14.47;95.29
12897;BME280;6516;35.028;32.372;2023-03-18T12:44:51;99390.84;;;14.54;95.82
12897;BME280;6516;35.028;32.372;2023-03-18T12:47:28;99388.25;;;14.52;94.10
12897;BME280;6516;35.028;32.372;2023-03-18T12:50:03;99386.59;;;14.50;94.32
12897;BME280;6516;35.028;32.372;2023-03-18T12:52:40;99388.94;;;14.37;91.61
12897;BME280;6516;35.028;32.372;2023-03-18T12:55:13;99393.78;;;14.28;92.14
12897;BME280;6516;35.028;32.372;2023-03-18T12:57:47;99382.41;;;14.26;93.01
12897;BME280;6516;35.028;32.372;2023-03-18T13:00:23;99389.44;;;14.27;92.73
12897;BME280;6516;35.028;32.372;2023-03-18T13:02:59;99398.03;;;14.32;93.52
12897;BME280;6516;35.028;32.372;2023-03-18T13:05:37;99391.59;;;14.37;93.29
12897;BME280;6516;35.028;32.372;2023-03-18T13:08:45;99404.66;;;14.42;94.41
12897;BME280;6516;35.028;32.372;2023-03-18T13:11:46;99401.06;;;14.43;94.18
12897;BME280;6516;35.028;32.372;2023-03-18T13:14:31;99408.59;;;14.52;95.05
12897;BME280;6516;35.028;32.372;2023-03-18T13:17:12;99399.06;;;14.48;95.76
12897;BME280;6516;35.028;32.372;2023-03-18T13:19:42;99403.19;;;14.35;96.09
12897;BME280;6516;35.028;32.372;2023-03-18T13:22:25;99402.31;;;14.34;96.42
12897;BME280;6516;35.028;32.372;2023-03-18T13:25:16;99407.25;;;14.23;96.91